Time;durP1;ratioP1;P1;durP2;ratioP2;P2;SDS_P1;SDS_P2;PMS_P1;PMS_P2;Temp;Humidity;BMP_temperature;BMP_pressure;BME280_temperature;BME280_humidity;BME280_pressure;Samples;Min_cycle;Max_cycle;Signal;HPM_P1;HPM_P2
2021/04/15 00:01:22;;;;;;;2.63;1.00;;;;;;;-0.64;79.36;101881.16;4986761;28;20209;-80
2021/04/15 00:03:49;;;;;;;1.80;0.90;;;;;;;-0.69;78.60;101889.47;4990974;28;20228;-80
2021/04/15 00:06:18;;;;;;;1.50;1.37;;;;;;;-0.67;78.40;101873.38;4990943;28;20204;-79
2021/04/15 00:08:46;;;;;;;1.03;0.93;;;;;;;-0.72;77.28;101873.97;4988615;28;21093;-80
2021/04/15 00:11:14;;;;;;;1.00;0.90;;;;;;;-0.64;82.52;101870.91;4989129;28;20229;-80
2021/04/15 00:13:43;;;;;;;1.27;0.90;;;;;;;-0.77;76.12;101873.81;4989622;28;20213;-80
2021/04/15 00:16:12;;;;;;;3.00;0.93;;;;;;;-0.80;75.71;101876.25;4990358;28;20204;-80
2021/04/15 00:18:38;;;;;;;0.80;0.80;;;;;;;-0.78;77.48;101872.91;4990247;28;20194;-80
2021/04/15 00:21:06;;;;;;;2.50;1.10;;;;;;;-0.73;80.39;101868.00;4990556;28;20194;-80
2021/04/15 00:23:33;;;;;;;0.90;0.90;;;;;;;-0.67;82.75;101867.34;4990324;28;20619;-80
2021/04/15 00:26:00;;;;;;;1.77;1.27;;;;;;;-0.55;85.61;101859.28;4990244;28;20212;-79
2021/04/15 00:28:26;;;;;;;1.60;1.10;;;;;;;-0.67;81.97;101860.56;4997412;28;20730;-80
2021/04/15 00:30:54;;;;;;;1.37;1.20;;;;;;;-0.69;82.68;101862.16;4990107;28;20213;-80
2021/04/15 00:33:21;;;;;;;1.80;1.03;;;;;;;-0.57;87.32;101852.41;4982138;28;20639;-80
2021/04/15 00:35:48;;;;;;;1.63;1.20;;;;;;;-0.64;85.78;101855.53;4980578;28;20259;-80
2021/04/15 00:38:17;;;;;;;1.33;1.17;;;;;;;-0.75;80.23;101863.63;4981826;28;20204;-80
2021/04/15 00:40:45;;;;;;;2.60;1.00;;;;;;;-0.68;84.10;101861.38;4989383;28;20229;-80
2021/04/15 00:43:12;;;;;;;1.47;1.10;;;;;;;-0.83;80.31;101861.63;4991723;28;20217;-79
2021/04/15 00:45:40;;;;;;;1.77;1.40;;;;;;;-0.85;80.99;101867.50;4988187;28;20193;-80
2021/04/15 00:48:10;;;;;;;2.63;1.13;;;;;;;-0.87;81.43;101861.44;4990675;28;20221;-79
2021/04/15 00:50:41;;;;;;;1.50;1.13;;;;;;;-0.92;79.60;101863.81;4992281;28;20680;-80
2021/04/15 00:53:13;;;;;;;2.00;1.23;;;;;;;-0.82;83.67;101855.69;4993926;28;20663;-80
2021/04/15 00:55:39;;;;;;;1.60;1.20;;;;;;;-0.86;83.13;101853.84;4992686;28;20228;-80
2021/04/15 00:58:06;;;;;;;2.90;0.90;;;;;;;-0.94;81.77;101859.44;4994070;28;20205;-80
2021/04/15 01:00:32;;;;;;;2.00;1.17;;;;;;;-0.87;84.83;101856.31;4993827;28;20213;-80
2021/04/15 01:03:01;;;;;;;4.47;1.43;;;;;;;-0.82;86.92;101845.44;4986626;28;20217;-79
2021/04/15 01:05:31;;;;;;;1.20;1.07;;;;;;;-0.91;83.55;101860.44;4973782;28;20281;-80
2021/04/15 01:07:57;;;;;;;2.50;1.50;;;;;;;-0.85;85.61;101854.69;4987380;28;20205;-79
2021/04/15 01:10:25;;;;;;;2.37;1.40;;;;;;;-0.78;88.81;101844.75;4996154;28;20602;-80
2021/04/15 01:13:07;;;;;;;1.13;1.03;;;;;;;-0.84;88.27;101854.75;4992463;28;20281;-80
2021/04/15 01:15:48;;;;;;;3.30;1.60;;;;;;;-0.83;88.72;101847.94;4991886;28;20657;-80
2021/04/15 01:18:19;;;;;;;2.47;1.30;;;;;;;-0.79;89.28;101849.84;4996393;28;20207;-79
2021/04/15 01:21:10;;;;;;;1.30;1.20;;;;;;;-0.84;89.21;101846.22;4994364;28;20791;-80
2021/04/15 01:23:41;;;;;;;1.90;1.30;;;;;;;-0.88;89.12;101841.75;4991616;28;20221;-80
2021/04/15 01:26:45;;;;;;;1.93;1.63;;;;;;;-0.74;91.37;101844.88;4990223;28;20300;-80
2021/04/15 01:29:24;;;;;;;2.33;1.17;;;;;;;-0.72;92.10;101840.69;4994649;28;20746;-79
2021/04/15 01:32:13;;;;;;;1.40;1.30;;;;;;;-0.72;91.71;101845.81;4991404;28;20288;-80
2021/04/15 01:34:45;;;;;;;3.33;1.30;;;;;;;-0.83;91.20;101843.69;4992987;28;20225;-80
2021/04/15 01:37:20;;;;;;;1.33;1.23;;;;;;;-0.95;89.96;101840.63;4992048;28;20272;-79
2021/04/15 01:39:53;;;;;;;1.10;0.90;;;;;;;-1.00;90.07;101837.03;4993223;28;20248;-79
2021/04/15 01:42:25;;;;;;;2.10;1.40;;;;;;;-1.00;90.18;101842.16;4990241;28;20232;-80
2021/04/15 01:44:55;;;;;;;2.33;1.60;;;;;;;-0.86;92.33;101833.34;4993556;28;20263;-80
2021/04/15 01:47:26;;;;;;;1.50;1.40;;;;;;;-0.87;91.67;101838.41;4994758;28;20216;-79
2021/04/15 01:49:58;;;;;;;1.57;1.27;;;;;;;-0.89;91.78;101840.91;4992647;28;20511;-80
2021/04/15 01:52:25;;;;;;;2.20;1.37;;;;;;;-0.88;91.84;101836.63;4992744;28;20197;-80
2021/04/15 01:54:57;;;;;;;1.83;1.27;;;;;;;-0.94;91.30;101832.16;4992030;28;20217;-80
2021/04/15 01:57:28;;;;;;;1.60;1.40;;;;;;;-0.87;92.62;101836.72;4989356;28;20208;-80
2021/04/15 02:00:00;;;;;;;1.80;1.40;;;;;;;-1.01;90.39;101842.97;4992427;28;20239;-80
2021/04/15 02:02:30;;;;;;;1.53;1.27;;;;;;;-1.06;89.89;101832.53;5000568;28;20278;-80
2021/04/15 02:05:03;;;;;;;1.90;1.10;;;;;;;-0.90;93.35;101835.72;4993308;28;20236;-80
2021/04/15 02:07:35;;;;;;;2.33;1.47;;;;;;;-0.96;92.85;101842.31;4990921;28;20197;-80
2021/04/15 02:10:05;;;;;;;2.57;1.50;;;;;;;-0.99;92.69;101833.66;4991705;28;20201;-80
2021/04/15 02:12:36;;;;;;;1.13;1.03;;;;;;;-1.04;91.83;101837.72;4992197;28;20653;-80
2021/04/15 02:15:24;;;;;;;2.30;1.50;;;;;;;-0.96;92.86;101833.78;4987440;28;20193;-79
2021/04/15 02:17:52;;;;;;;1.87;1.37;;;;;;;-0.94;93.34;101838.97;4991892;28;20919;-80
2021/04/15 02:20:21;;;;;;;2.07;1.40;;;;;;;-1.05;91.87;101843.66;4989697;28;20232;-80
2021/04/15 02:22:54;;;;;;;2.57;1.43;;;;;;;-1.08;91.02;101836.72;4992564;28;20351;-80
2021/04/15 02:25:27;;;;;;;3.37;1.50;;;;;;;-0.97;93.27;101834.59;4991524;28;20576;-80
2021/04/15 02:28:03;;;;;;;2.10;1.60;;;;;;;-0.91;94.34;101834.84;4993283;28;20204;-80
2021/04/15 02:30:34;;;;;;;1.60;1.40;;;;;;;-0.90;94.11;101838.28;4993131;28;20280;-80
2021/04/15 02:33:05;;;;;;;2.80;1.73;;;;;;;-0.93;94.43;101831.34;4991575;28;20625;-80
2021/04/15 02:35:38;;;;;;;3.50;1.60;;;;;;;-0.91;94.50;101836.53;4988665;28;20288;-80
2021/04/15 02:38:05;;;;;;;3.47;1.73;;;;;;;-0.95;94.19;101827.84;4993517;28;20258;-80
2021/04/15 02:40:36;;;;;;;2.90;1.57;;;;;;;-1.01;92.78;101837.84;4992577;28;20283;-80
2021/04/15 02:43:08;;;;;;;2.87;2.00;;;;;;;-1.05;92.56;101835.97;4992553;28;20223;-80
2021/04/15 02:45:40;;;;;;;3.10;1.60;;;;;;;-1.14;91.51;101828.81;4992887;28;20276;-80
2021/04/15 02:48:11;;;;;;;2.47;1.43;;;;;;;-1.16;90.86;101833.84;4992457;28;20197;-80
2021/04/15 02:50:38;;;;;;;2.27;1.47;;;;;;;-1.19;90.93;101831.16;4991291;28;20280;-80
2021/04/15 02:53:11;;;;;;;2.97;1.90;;;;;;;-1.18;90.74;101832.03;4993142;28;20294;-80
2021/04/15 02:55:48;;;;;;;3.40;1.70;;;;;;;-1.15;91.81;101830.47;4987671;28;20256;-80
2021/04/15 02:58:22;;;;;;;1.90;1.53;;;;;;;-1.18;91.36;101827.81;4992684;28;20193;-80
2021/04/15 03:00:51;;;;;;;4.17;1.97;;;;;;;-1.23;90.54;101824.19;4991734;28;20221;-80
2021/04/15 03:03:20;;;;;;;3.97;1.80;;;;;;;-1.19;91.70;101828.59;4990715;28;20224;-80
2021/04/15 03:05:49;;;;;;;2.60;1.77;;;;;;;-1.20;91.75;101831.97;4991716;28;20201;-80
2021/04/15 03:08:20;;;;;;;4.17;2.03;;;;;;;-1.08;94.16;101831.59;4992591;28;20193;-80
2021/04/15 03:10:51;;;;;;;2.00;1.67;;;;;;;-1.16;92.08;101831.28;4995093;28;20201;-79
2021/04/15 03:13:22;;;;;;;3.40;1.90;;;;;;;-1.13;93.26;101834.78;4998172;28;20289;-80
2021/04/15 03:15:53;;;;;;;1.73;1.53;;;;;;;-1.10;93.62;101832.34;5003169;28;20209;-79
2021/04/15 03:18:23;;;;;;;2.53;2.00;;;;;;;-1.20;91.92;101834.50;4999369;28;20212;-79
2021/04/15 03:20:52;;;;;;;3.90;2.10;;;;;;;-1.30;90.15;101842.66;5001522;28;20239;-80
2021/04/15 03:23:28;;;;;;;4.97;1.70;;;;;;;-1.34;88.90;101846.75;5001269;28;20232;-80
2021/04/15 03:25:57;;;;;;;2.17;1.60;;;;;;;-1.31;90.41;101842.56;5000585;28;20211;-80
2021/04/15 03:28:31;;;;;;;1.77;1.40;;;;;;;-1.39;88.31;101848.25;5000805;28;20198;-79
2021/04/15 03:31:03;;;;;;;2.53;1.80;;;;;;;-1.35;89.20;101851.81;4992948;28;20248;-80
2021/04/15 03:33:36;;;;;;;1.83;1.57;;;;;;;-1.36;89.97;101842.38;4990503;28;20630;-79
2021/04/15 03:36:06;;;;;;;3.70;1.87;;;;;;;-1.37;89.44;101841.50;4990743;28;20224;-80
2021/04/15 03:38:36;;;;;;;3.07;1.67;;;;;;;-1.33;90.35;101843.38;4988660;28;20201;-80
2021/04/15 03:41:06;;;;;;;3.90;1.97;;;;;;;-1.38;89.60;101838.88;4987329;28;20220;-80
2021/04/15 03:43:36;;;;;;;2.60;1.60;;;;;;;-1.40;89.19;101850.75;4990998;28;20232;-80
2021/04/15 03:46:10;;;;;;;3.40;1.90;;;;;;;-1.41;88.49;101849.84;4989470;28;20251;-79
2021/04/15 03:48:42;;;;;;;3.43;2.00;;;;;;;-1.33;91.44;101843.38;4989141;28;20292;-80
2021/04/15 03:51:11;;;;;;;2.10;1.60;;;;;;;-1.36;90.70;101850.91;4989336;28;20265;-80
2021/04/15 03:53:40;;;;;;;3.73;2.20;;;;;;;-1.39;90.09;101845.69;4990409;28;20896;-80
2021/04/15 03:56:13;;;;;;;4.73;2.10;;;;;;;-1.39;90.48;101853.38;4990980;28;20200;-80
2021/04/15 03:58:43;;;;;;;2.53;1.73;;;;;;;-1.38;90.32;101844.00;4989065;28;20352;-80
2021/04/15 04:01:14;;;;;;;2.37;1.73;;;;;;;-1.40;90.04;101849.06;4980095;28;20316;-80
2021/04/15 04:03:43;;;;;;;2.37;1.87;;;;;;;-1.41;89.57;101852.41;4989296;28;20229;-79
2021/04/15 04:06:15;;;;;;;4.37;1.87;;;;;;;-1.40;89.58;101845.63;4992837;28;20198;-79
2021/04/15 04:08:46;;;;;;;3.00;1.83;;;;;;;-1.39;89.57;101839.69;4990789;28;20280;-80
2021/04/15 04:11:14;;;;;;;3.57;2.27;;;;;;;-1.39;88.61;101849.91;4986503;28;20209;-80
2021/04/15 04:13:43;;;;;;;3.17;2.00;;;;;;;-1.36;89.22;101848.34;4982370;28;20728;-79
2021/04/15 04:16:19;;;;;;;3.50;1.90;;;;;;;-1.37;88.38;101849.19;4983871;28;20775;-80
2021/04/15 04:18:51;;;;;;;3.20;2.10;;;;;;;-1.31;89.21;101853.69;4988169;28;21046;-79
2021/04/15 04:21:21;;;;;;;5.00;2.27;;;;;;;-1.34;88.51;101857.00;4988650;28;20559;-80
2021/04/15 04:23:52;;;;;;;4.47;2.30;;;;;;;-1.30;88.94;101859.66;4988086;28;20217;-80
2021/04/15 04:26:23;;;;;;;3.50;2.20;;;;;;;-1.31;88.54;101858.78;4986391;28;20201;-80
2021/04/15 04:29:06;;;;;;;3.80;2.30;;;;;;;-1.27;88.27;101857.25;4991998;28;20193;-80
2021/04/15 04:31:38;;;;;;;3.73;1.90;;;;;;;-1.22;89.23;101864.28;4990519;28;20228;-80
2021/04/15 04:34:06;;;;;;;5.70;2.37;;;;;;;-1.14;89.90;101867.19;4989978;28;20227;-80
2021/04/15 04:36:34;;;;;;;4.37;2.30;;;;;;;-1.17;88.73;101867.91;4995633;28;20200;-79
2021/04/15 04:39:01;;;;;;;2.67;2.23;;;;;;;-1.12;88.96;101865.56;4985130;28;20236;-80
2021/04/15 04:41:32;;;;;;;4.17;2.30;;;;;;;-1.09;89.06;101865.69;4990097;28;20216;-80
2021/04/15 04:44:03;;;;;;;3.23;2.07;;;;;;;-1.06;89.19;101858.13;4992062;28;20209;-80
2021/04/15 04:46:42;;;;;;;3.47;2.37;;;;;;;-1.00;89.70;101863.50;4990556;28;20208;-80
2021/04/15 04:49:15;;;;;;;4.23;2.30;;;;;;;-0.97;89.59;101863.66;5010753;28;20665;-80
2021/04/15 04:51:47;;;;;;;4.23;2.67;;;;;;;-0.93;89.08;101861.19;4990239;28;20198;-80
2021/04/15 04:54:16;;;;;;;4.33;2.90;;;;;;;-0.97;88.04;101863.66;4989968;28;20304;-80
2021/04/15 04:56:46;;;;;;;3.90;2.60;;;;;;;-0.93;88.20;101872.31;4989982;28;20212;-80
2021/04/15 04:59:16;;;;;;;5.87;2.73;;;;;;;-0.89;88.21;101871.63;4989386;28;21836;-80
2021/04/15 05:01:43;;;;;;;4.67;2.50;;;;;;;-0.86;88.10;101874.31;4991402;28;20216;-80
2021/04/15 05:04:09;;;;;;;5.67;2.67;;;;;;;-0.84;88.17;101874.38;4992464;28;20279;-79
2021/04/15 05:06:39;;;;;;;4.23;2.77;;;;;;;-0.80;88.20;101879.66;4994675;28;20197;-80
2021/04/15 05:09:10;;;;;;;5.77;2.77;;;;;;;-0.72;88.80;101886.78;4993505;28;20833;-80
2021/04/15 05:11:39;;;;;;;5.30;2.47;;;;;;;-0.69;88.07;101882.66;4988858;28;20256;-80
2021/04/15 05:14:06;;;;;;;6.40;3.10;;;;;;;-0.64;88.65;101877.72;4992637;28;20245;-80
2021/04/15 05:16:37;;;;;;;4.33;2.87;;;;;;;-0.62;87.58;101881.22;4989897;28;20246;-80
2021/04/15 05:19:04;;;;;;;5.83;2.73;;;;;;;-0.55;88.17;101882.34;4996646;28;20185;-79
2021/04/15 05:21:32;;;;;;;5.17;2.93;;;;;;;-0.49;88.30;101882.56;4993108;28;20197;-79
2021/04/15 05:24:05;;;;;;;4.97;2.80;;;;;;;-0.41;88.42;101881.19;5015004;28;20229;-80
2021/04/15 05:26:34;;;;;;;5.73;3.10;;;;;;;-0.38;87.81;101884.75;4992170;28;20336;-80
2021/04/15 05:29:04;;;;;;;5.57;3.10;;;;;;;-0.35;87.25;101884.00;4986939;28;20203;-80
2021/04/15 05:31:33;;;;;;;6.27;4.10;;;;;;;-0.27;87.62;101885.16;4994944;28;20232;-80
2021/04/15 05:34:01;;;;;;;6.77;3.40;;;;;;;-0.25;87.42;101874.97;4993860;28;20212;-79
2021/04/15 05:36:35;;;;;;;7.73;3.73;;;;;;;-0.15;87.70;101889.03;4991627;28;20692;-80
2021/04/15 05:39:07;;;;;;;7.37;4.87;;;;;;;-0.09;87.99;101877.31;4989318;28;20201;-80
2021/04/15 05:41:40;;;;;;;8.47;3.70;;;;;;;-0.02;87.21;101883.53;4985851;28;20226;-80
2021/04/15 05:44:14;;;;;;;6.10;3.67;;;;;;;0.04;86.53;101888.03;4990721;28;20263;-80
2021/04/15 05:46:43;;;;;;;5.77;3.27;;;;;;;0.10;86.53;101885.69;4992333;28;20201;-80
2021/04/15 05:49:16;;;;;;;6.87;3.50;;;;;;;0.17;86.01;101888.50;4989956;28;20215;-80
2021/04/15 05:51:47;;;;;;;6.67;3.53;;;;;;;0.24;85.96;101886.19;4988205;28;20492;-80
2021/04/15 05:54:16;;;;;;;6.60;3.60;;;;;;;0.28;85.39;101890.59;4992351;28;20708;-80
2021/04/15 05:57:01;;;;;;;5.37;3.47;;;;;;;0.35;85.71;101890.91;4989045;28;20201;-80
2021/04/15 05:59:39;;;;;;;3.87;3.10;;;;;;;0.37;85.11;101888.38;4990057;28;20317;-80
2021/04/15 06:02:27;;;;;;;5.27;3.40;;;;;;;0.46;85.35;101888.72;4982340;28;20205;-80
2021/04/15 06:04:57;;;;;;;5.80;3.57;;;;;;;0.52;85.11;101894.03;4987699;28;20213;-80
2021/04/15 06:07:26;;;;;;;6.10;2.67;;;;;;;0.57;84.82;101887.38;4991924;28;20202;-80
2021/04/15 06:09:53;;;;;;;5.10;3.23;;;;;;;0.66;85.36;101891.09;4991257;28;20618;-80
2021/04/15 06:12:30;;;;;;;7.07;3.47;;;;;;;0.74;85.14;101887.09;4991059;28;20202;-80
2021/04/15 06:15:04;;;;;;;10.17;4.03;;;;;;;0.82;85.26;101885.66;4991637;28;20704;-80
2021/04/15 06:17:33;;;;;;;7.90;3.27;;;;;;;0.83;84.20;101886.56;4988342;28;20205;-80
2021/04/15 06:20:07;;;;;;;9.03;3.87;;;;;;;0.84;84.52;101889.16;4992721;28;20272;-80
2021/04/15 06:22:38;;;;;;;11.57;5.30;;;;;;;0.88;83.88;101893.59;4992178;28;20200;-80
2021/04/15 06:25:08;;;;;;;14.70;6.53;;;;;;;0.96;83.86;101898.09;4989738;28;20478;-80
2021/04/15 06:27:35;;;;;;;19.63;7.70;;;;;;;1.02;83.71;101890.59;4990393;28;20593;-80
2021/04/15 06:30:07;;;;;;;9.53;5.17;;;;;;;1.06;83.69;101890.75;4990783;28;20201;-79
2021/04/15 06:32:39;;;;;;;11.37;5.27;;;;;;;1.10;83.08;101895.16;4991229;28;20309;-80
2021/04/15 06:35:08;;;;;;;8.43;5.17;;;;;;;1.13;83.09;101897.84;4991893;28;20196;-80
2021/04/15 06:37:41;;;;;;;6.70;3.20;;;;;;;1.17;83.14;101890.22;4991913;28;20578;-80
2021/04/15 06:40:49;;;;;;;11.80;5.73;;;;;;;1.21;82.93;101897.22;4990435;28;20218;-80
2021/04/15 06:43:36;;;;;;;8.93;4.60;;;;;;;1.35;83.41;101889.94;4991039;28;20696;-80
2021/04/15 06:46:16;;;;;;;6.37;3.93;;;;;;;1.41;82.86;101885.03;4990309;28;20309;-80
2021/04/15 06:49:16;;;;;;;4.57;2.90;;;;;;;1.57;82.87;101889.81;4987249;28;20214;-80
2021/04/15 06:51:55;;;;;;;10.07;4.47;;;;;;;1.61;82.42;101885.63;4992089;28;20211;-80
2021/04/15 06:54:37;;;;;;;7.37;4.17;;;;;;;1.80;83.06;101882.78;4989897;28;20221;-80
2021/04/15 06:57:44;;;;;;;10.00;5.10;;;;;;;1.91;82.59;101885.66;4984723;28;20734;-80
2021/04/15 07:00:21;;;;;;;5.00;3.03;;;;;;;1.88;82.01;101888.16;4965973;28;20245;-80
2021/04/15 07:03:04;;;;;;;11.43;4.80;;;;;;;2.00;82.29;101885.94;4995185;28;20290;-80
2021/04/15 07:05:36;;;;;;;9.17;5.10;;;;;;;2.05;82.49;101886.94;4989061;28;20276;-80
2021/04/15 07:08:06;;;;;;;8.00;4.37;;;;;;;2.14;82.40;101883.75;4993448;28;20201;-80
2021/04/15 07:10:51;;;;;;;7.53;4.40;;;;;;;2.27;82.05;101888.44;4984138;28;20200;-80
2021/04/15 07:13:39;;;;;;;7.07;3.40;;;;;;;2.28;81.35;101887.59;4988696;28;20704;-80
2021/04/15 07:16:43;;;;;;;5.83;3.10;;;;;;;2.30;80.90;101887.63;4985686;28;20201;-80
2021/04/15 07:19:41;;;;;;;7.67;4.53;;;;;;;2.45;80.86;101882.06;4919847;28;20215;-80
2021/04/15 07:22:51;;;;;;;5.07;3.40;;;;;;;2.51;80.49;101887.34;4987771;28;20193;-80
2021/04/15 07:25:33;;;;;;;4.50;2.67;;;;;;;2.54;80.31;101892.59;4988404;28;20231;-80
2021/04/15 07:28:23;;;;;;;3.47;2.33;;;;;;;2.60;79.99;101889.31;4990358;28;20219;-80
2021/04/15 07:31:06;;;;;;;3.43;2.63;;;;;;;2.74;79.91;101893.13;4990999;28;20220;-80
2021/04/15 07:34:03;;;;;;;5.50;2.47;;;;;;;2.80;78.95;101895.00;4989755;28;20221;-80
2021/04/15 07:36:40;;;;;;;4.40;2.40;;;;;;;2.83;79.05;101895.97;4990482;28;20189;-80
2021/04/15 07:39:22;;;;;;;5.43;2.60;;;;;;;2.75;78.54;101901.75;4991131;28;20633;-80
2021/04/15 07:42:08;;;;;;;3.60;2.23;;;;;;;2.79;78.60;101900.97;4991798;28;20185;-80
2021/04/15 07:44:38;;;;;;;5.47;2.37;;;;;;;2.87;78.86;101906.31;4990668;28;20284;-80
2021/04/15 07:47:19;;;;;;;5.07;2.40;;;;;;;3.04;79.00;101910.19;4991748;28;20660;-80
2021/04/15 07:50:16;;;;;;;6.47;3.00;;;;;;;3.02;77.38;101907.59;4987944;28;20279;-80
2021/04/15 07:53:06;;;;;;;3.67;2.70;;;;;;;2.95;77.61;101910.84;4988049;28;20269;-80
2021/04/15 07:55:53;;;;;;;3.50;2.40;;;;;;;2.94;78.13;101908.25;4989293;28;20232;-80
2021/04/15 07:58:39;;;;;;;3.07;2.50;;;;;;;2.97;76.89;101906.63;4982346;28;20201;-80
2021/04/15 08:01:20;;;;;;;3.43;2.30;;;;;;;3.15;77.43;101908.78;4981533;28;20243;-80
2021/04/15 08:04:18;;;;;;;3.13;2.40;;;;;;;3.22;76.37;101909.81;4989735;28;20228;-80
2021/04/15 08:06:59;;;;;;;4.67;2.20;;;;;;;3.27;75.90;101909.91;4989955;28;20217;-80
2021/04/15 08:09:55;;;;;;;2.47;2.10;;;;;;;3.40;75.93;101905.09;4990065;28;20239;-80
2021/04/15 08:12:37;;;;;;;4.20;2.37;;;;;;;3.60;75.32;101915.84;4987896;28;20990;-80
2021/04/15 08:15:30;;;;;;;3.70;2.00;;;;;;;3.80;74.91;101920.63;4990503;28;20209;-80
2021/04/15 08:18:06;;;;;;;4.67;2.67;;;;;;;3.81;73.99;101913.75;4991374;28;20262;-80
2021/04/15 08:21:09;;;;;;;8.13;3.57;;;;;;;3.92;74.61;101907.09;4989102;28;20597;-80
2021/04/15 08:23:48;;;;;;;8.03;3.60;;;;;;;3.89;73.01;101912.22;4986771;28;20240;-80
2021/04/15 08:26:33;;;;;;;10.87;4.60;;;;;;;3.93;72.92;101916.59;4992809;28;20256;-80
2021/04/15 08:29:21;;;;;;;8.47;4.67;;;;;;;4.13;72.88;101911.84;5004949;28;20201;-80
2021/04/15 08:32:02;;;;;;;8.17;4.07;;;;;;;4.19;71.17;101912.00;5008375;28;20236;-80
2021/04/15 08:34:37;;;;;;;4.23;2.53;;;;;;;4.27;70.36;101906.97;5007861;28;20225;-80
2021/04/15 08:37:30;;;;;;;2.83;1.90;;;;;;;4.43;69.53;101911.59;5007813;28;20513;-80
2021/04/15 08:40:07;;;;;;;3.57;1.90;;;;;;;4.62;69.03;101910.25;5002234;28;20259;-80
2021/04/15 08:42:44;;;;;;;2.97;1.70;;;;;;;4.61;65.62;101917.97;5007799;28;20459;-80
2021/04/15 08:45:25;;;;;;;2.73;1.40;;;;;;;4.78;67.26;101924.31;5005028;28;20211;-80
2021/04/15 08:47:58;;;;;;;2.40;2.20;;;;;;;4.71;66.10;101923.38;4992525;28;20204;-80
2021/04/15 08:50:37;;;;;;;2.20;2.00;;;;;;;4.78;65.31;101926.91;4987822;28;20289;-80
2021/04/15 08:53:17;;;;;;;2.77;1.70;;;;;;;4.83;64.81;101930.44;4989842;28;20289;-80
2021/04/15 08:55:48;;;;;;;2.63;1.60;;;;;;;4.85;63.76;101926.19;4981570;28;20569;-80
2021/04/15 08:58:43;;;;;;;3.63;1.40;;;;;;;4.94;63.75;101925.47;4980082;28;20206;-80
2021/04/15 09:01:18;;;;;;;1.60;1.50;;;;;;;4.93;63.69;101922.03;4979416;28;20565;-80
2021/04/15 09:03:52;;;;;;;2.17;1.53;;;;;;;5.06;63.19;101920.50;4987629;28;21255;-80
2021/04/15 09:06:23;;;;;;;2.93;1.53;;;;;;;5.14;63.19;101912.91;4988302;28;20280;-80
2021/04/15 09:09:11;;;;;;;2.57;1.37;;;;;;;5.06;62.60;101924.81;4985845;28;20842;-80
2021/04/15 09:11:42;;;;;;;2.17;1.40;;;;;;;5.06;63.45;101915.34;4988774;28;20253;-80
2021/04/15 09:14:20;;;;;;;3.03;1.57;;;;;;;5.18;63.75;101909.53;4991668;28;20217;-80
2021/04/15 09:16:57;;;;;;;2.53;1.50;;;;;;;5.47;65.11;101907.41;4991235;28;20203;-80
2021/04/15 09:19:45;;;;;;;1.20;1.10;;;;;;;5.38;62.45;101909.88;4992205;28;20205;-80
2021/04/15 09:22:30;;;;;;;2.53;1.30;;;;;;;5.21;62.47;101916.47;4991535;28;20847;-80
2021/04/15 09:25:02;;;;;;;1.73;1.37;;;;;;;5.10;62.24;101916.25;4991847;28;20229;-80
2021/04/15 09:27:45;;;;;;;1.87;1.67;;;;;;;5.00;63.66;101910.09;4992966;28;20725;-80
2021/04/15 09:30:21;;;;;;;2.67;1.77;;;;;;;4.90;64.06;101916.78;4990597;28;20240;-80
2021/04/15 09:33:01;;;;;;;2.07;1.23;;;;;;;4.72;63.88;101912.16;4991167;28;20197;-80
2021/04/15 09:36:02;;;;;;;1.60;1.40;;;;;;;4.59;64.87;101904.16;4990940;28;20272;-81
2021/04/15 09:38:51;;;;;;;1.33;1.17;;;;;;;4.50;66.73;101912.59;4969938;28;20216;-81
2021/04/15 09:41:52;;;;;;;2.10;1.70;;;;;;;4.35;66.00;101898.53;4988354;28;20919;-81
2021/04/15 09:44:35;;;;;;;2.17;1.70;;;;;;;4.38;64.49;101902.03;4989412;28;20228;-81
2021/04/15 09:47:11;;;;;;;1.53;1.20;;;;;;;4.29;61.16;101911.34;4985957;28;20197;-81
2021/04/15 09:49:54;;;;;;;1.37;1.23;;;;;;;4.18;63.31;101912.81;4989919;28;20248;-80
2021/04/15 09:52:43;;;;;;;2.20;1.40;;;;;;;4.06;67.25;101897.94;4987701;28;20232;-81
2021/04/15 09:55:23;;;;;;;2.90;1.80;;;;;;;4.11;68.55;101886.00;4988776;28;20225;-80
2021/04/15 09:57:56;;;;;;;1.63;1.53;;;;;;;4.24;69.21;101891.41;4991615;28;20584;-81
2021/04/15 10:00:25;;;;;;;2.83;1.80;;;;;;;4.46;68.66;101892.72;4988997;28;20221;-80
2021/04/15 10:03:05;;;;;;;2.17;1.97;;;;;;;4.67;67.33;101897.44;4980014;28;20787;-80
2021/04/15 10:05:51;;;;;;;2.63;2.10;;;;;;;4.79;65.28;101900.25;4985662;28;20205;-80
2021/04/15 10:08:29;;;;;;;3.40;2.50;;;;;;;4.89;65.03;101899.56;5008781;28;20747;-80
2021/04/15 10:11:03;;;;;;;2.43;2.23;;;;;;;4.83;65.36;101901.16;4989423;28;20197;-81
2021/04/15 10:13:42;;;;;;;3.07;2.13;;;;;;;4.86;65.54;101906.41;4990908;28;20252;-81
2021/04/15 10:16:18;;;;;;;2.17;2.00;;;;;;;4.67;66.40;101897.44;4993117;28;20297;-81
2021/04/15 10:19:02;;;;;;;2.97;2.37;;;;;;;4.77;66.87;101888.13;4988149;28;20938;-81
2021/04/15 10:21:41;;;;;;;1.70;1.60;;;;;;;4.67;65.03;101890.53;4986516;28;20240;-81
2021/04/15 10:24:14;;;;;;;1.80;1.20;;;;;;;4.75;65.03;101893.28;4990279;28;20214;-81
2021/04/15 10:27:15;;;;;;;3.00;1.30;;;;;;;4.72;65.38;101894.09;4991465;28;20201;-81
2021/04/15 10:30:16;;;;;;;1.73;1.30;;;;;;;4.74;65.50;101884.63;4988624;28;20773;-81
2021/04/15 10:33:03;;;;;;;2.30;1.00;;;;;;;4.90;64.63;101885.78;4989212;28;20212;-80
2021/04/15 10:36:18;;;;;;;4.17;1.50;;;;;;;5.01;63.99;101879.94;4990271;28;20236;-80
2021/04/15 10:38:56;;;;;;;2.53;1.30;;;;;;;5.04;64.91;101882.56;4989231;28;20273;-81
2021/04/15 10:41:56;;;;;;;2.70;1.03;;;;;;;4.98;65.32;101883.34;4991335;28;20244;-81
2021/04/15 10:44:40;;;;;;;1.27;1.17;;;;;;;4.81;67.79;101877.00;4958239;28;20290;-81
2021/04/15 10:47:21;;;;;;;4.03;1.10;;;;;;;4.81;69.93;101870.13;4989243;28;20709;-80
2021/04/15 10:50:01;;;;;;;1.43;1.20;;;;;;;4.72;70.04;101888.91;4991856;28;20363;-81
2021/04/15 10:52:50;;;;;;;2.00;1.40;;;;;;;4.38;72.31;101868.47;4988144;28;20671;-81
2021/04/15 10:55:23;;;;;;;1.00;1.00;;;;;;;4.49;74.20;101870.41;4990641;28;20209;-81
2021/04/15 10:57:50;;;;;;;1.80;1.23;;;;;;;4.41;73.61;101864.22;4988900;28;20243;-81
2021/04/15 11:00:27;;;;;;;1.60;1.50;;;;;;;4.41;72.37;101871.09;4990589;28;20233;-81
2021/04/15 11:02:55;;;;;;;2.00;1.30;;;;;;;4.53;72.90;101868.75;4989701;28;20218;-81
2021/04/15 11:05:25;;;;;;;1.23;1.13;;;;;;;4.57;72.32;101865.38;4991017;28;20206;-81
2021/04/15 11:07:54;;;;;;;3.10;1.40;;;;;;;4.66;70.63;101877.59;4990256;28;20204;-81
2021/04/15 11:10:29;;;;;;;1.50;1.10;;;;;;;4.74;71.19;101866.56;4989525;28;20209;-81
2021/04/15 11:13:21;;;;;;;1.43;1.10;;;;;;;4.85;70.47;101869.31;4988596;28;20220;-81
2021/04/15 11:15:49;;;;;;;1.33;1.23;;;;;;;4.72;70.64;101865.66;4991055;28;20259;-81
2021/04/15 11:18:24;;;;;;;2.07;1.30;;;;;;;4.67;70.57;101861.25;4985027;28;20554;-81
2021/04/15 11:20:52;;;;;;;1.40;1.30;;;;;;;4.81;71.14;101864.09;4990661;28;20650;-80
2021/04/15 11:23:32;;;;;;;1.97;1.43;;;;;;;4.86;71.22;101857.28;4990553;28;20217;-81
2021/04/15 11:26:17;;;;;;;3.97;1.23;;;;;;;4.92;69.56;101862.53;4990973;28;20650;-81
2021/04/15 11:28:44;;;;;;;2.43;1.17;;;;;;;5.07;69.91;101842.13;4989362;28;20292;-80
2021/04/15 11:31:28;;;;;;;2.20;1.20;;;;;;;5.04;69.38;101855.00;4989079;28;20639;-81
2021/04/15 11:34:06;;;;;;;2.07;1.40;;;;;;;4.91;69.80;101855.66;4989682;28;20247;-81
2021/04/15 11:36:34;;;;;;;1.20;1.10;;;;;;;4.70;69.81;101862.19;4987881;28;20572;-81
2021/04/15 11:39:11;;;;;;;1.47;1.20;;;;;;;4.44;68.06;101861.69;4990273;28;20201;-81
2021/04/15 11:41:52;;;;;;;1.67;1.57;;;;;;;4.32;69.76;101848.56;4987721;28;20288;-81
2021/04/15 11:44:29;;;;;;;1.60;1.40;;;;;;;4.43;70.76;101841.00;4990343;28;20217;-80
2021/04/15 11:46:59;;;;;;;6.43;3.77;;;;;;;4.47;69.91;101843.69;4989638;28;20237;-81
2021/04/15 11:49:30;;;;;;;4.17;2.87;;;;;;;4.61;70.58;101837.88;4986581;28;20194;-81
2021/04/15 11:52:31;;;;;;;4.83;3.63;;;;;;;4.41;68.22;101853.88;4985719;28;20562;-81
2021/04/15 11:55:08;;;;;;;3.57;2.00;;;;;;;4.42;68.91;101847.03;4984269;28;20266;-81
2021/04/15 11:57:38;;;;;;;2.57;2.17;;;;;;;4.47;68.25;101845.41;4990094;28;20202;-81
2021/04/15 12:00:17;;;;;;;2.00;1.80;;;;;;;4.69;68.44;101844.94;4990798;28;20217;-81
2021/04/15 12:02:47;;;;;;;1.60;1.50;;;;;;;4.74;66.39;101851.06;4976826;28;20289;-81
2021/04/15 12:05:20;;;;;;;1.60;1.40;;;;;;;4.91;66.27;101855.66;4988732;28;20209;-81
2021/04/15 12:07:52;;;;;;;2.37;1.57;;;;;;;4.81;66.13;101846.88;4989772;28;20207;-81
2021/04/15 12:10:20;;;;;;;2.63;1.10;;;;;;;4.93;66.10;101846.22;4986068;28;20193;-81